sensor_id;sensor_type;location;lat;lon;timestamp;temperature;humidity
1137;DHT22;557;48.466;7.950;2023-04-12T00:01:47;9.10;99.90
1137;DHT22;557;48.466;7.950;2023-04-12T00:04:36;9.10;99.90
1137;DHT22;557;48.466;7.950;2023-04-12T00:07:24;9.00;99.90
1137;DHT22;557;48.466;7.950;2023-04-12T00:10:12;8.90;99.90
1137;DHT22;557;48.466;7.950;2023-04-12T00:12:59;8.90;99.90
1137;DHT22;557;48.466;7.950;2023-04-12T00:15:46;8.90;99.90
1137;DHT22;557;48.466;7.950;2023-04-12T00:18:34;8.90;99.90
1137;DHT22;557;48.466;7.950;2023-04-12T00:21:22;8.80;99.90
1137;DHT22;557;48.466;7.950;2023-04-12T00:24:13;8.90;99.90
1137;DHT22;557;48.466;7.950;2023-04-12T00:27:00;8.90;99.90
1137;DHT22;557;48.466;7.950;2023-04-12T00:29:48;8.90;99.90
1137;DHT22;557;48.466;7.950;2023-04-12T00:32:35;8.90;99.90
1137;DHT22;557;48.466;7.950;2023-04-12T00:35:22;8.90;99.90
1137;DHT22;557;48.466;7.950;2023-04-12T00:38:11;8.90;99.90
1137;DHT22;557;48.466;7.950;2023-04-12T00:41:00;8.90;99.90
1137;DHT22;557;48.466;7.950;2023-04-12T00:43:47;8.90;99.90
1137;DHT22;557;48.466;7.950;2023-04-12T00:46:35;8.90;99.90
1137;DHT22;557;48.466;7.950;2023-04-12T00:49:23;8.90;99.90
1137;DHT22;557;48.466;7.950;2023-04-12T00:52:15;8.90;99.90
1137;DHT22;557;48.466;7.950;2023-04-12T00:55:06;8.90;99.90
1137;DHT22;557;48.466;7.950;2023-04-12T00:57:54;8.90;99.90
1137;DHT22;557;48.466;7.950;2023-04-12T01:00:43;8.90;99.90
1137;DHT22;557;48.466;7.950;2023-04-12T01:03:35;9.00;99.90
1137;DHT22;557;48.466;7.950;2023-04-12T01:06:36;8.90;99.90
1137;DHT22;557;48.466;7.950;2023-04-12T01:09:30;8.90;99.90
1137;DHT22;557;48.466;7.950;2023-04-12T01:12:30;8.80;99.90
1137;DHT22;557;48.466;7.950;2023-04-12T01:15:20;8.80;99.90
1137;DHT22;557;48.466;7.950;2023-04-12T01:18:13;8.80;99.90
1137;DHT22;557;48.466;7.950;2023-04-12T01:21:05;8.70;99.90
1137;DHT22;557;48.466;7.950;2023-04-12T01:24:19;8.60;99.90
1137;DHT22;557;48.466;7.950;2023-04-12T01:27:18;8.50;99.90
1137;DHT22;557;48.466;7.950;2023-04-12T01:30:10;8.50;99.90
1137;DHT22;557;48.466;7.950;2023-04-12T01:33:00;8.50;99.90
1137;DHT22;557;48.466;7.950;2023-04-12T01:35:50;8.40;99.90
1137;DHT22;557;48.466;7.950;2023-04-12T01:38:40;8.40;99.90
1137;DHT22;557;48.466;7.950;2023-04-12T01:41:28;8.40;99.90
1137;DHT22;557;48.466;7.950;2023-04-12T01:44:18;8.40;99.90
1137;DHT22;557;48.466;7.950;2023-04-12T01:47:05;8.40;99.90
1137;DHT22;557;48.466;7.950;2023-04-12T01:49:58;8.30;99.90
1137;DHT22;557;48.466;7.950;2023-04-12T01:52:57;8.30;99.90
1137;DHT22;557;48.466;7.950;2023-04-12T01:55:46;8.40;99.90
1137;DHT22;557;48.466;7.950;2023-04-12T01:58:35;8.30;99.90
1137;DHT22;557;48.466;7.950;2023-04-12T02:01:24;8.20;99.90
1137;DHT22;557;48.466;7.950;2023-04-12T02:04:14;8.20;99.90
1137;DHT22;557;48.466;7.950;2023-04-12T02:07:03;8.20;99.90
1137;DHT22;557;48.466;7.950;2023-04-12T02:09:50;8.20;99.90
1137;DHT22;557;48.466;7.950;2023-04-12T02:12:38;8.20;99.90
1137;DHT22;557;48.466;7.950;2023-04-12T02:15:25;8.30;99.90
1137;DHT22;557;48.466;7.950;2023-04-12T02:18:14;8.30;99.90
1137;DHT22;557;48.466;7.950;2023-04-12T02:21:02;8.30;99.90
1137;DHT22;557;48.466;7.950;2023-04-12T02:23:49;8.30;99.90
1137;DHT22;557;48.466;7.950;2023-04-12T02:26:37;8.30;99.90
1137;DHT22;557;48.466;7.950;2023-04-12T02:29:24;8.30;99.90
1137;DHT22;557;48.466;7.950;2023-04-12T02:32:12;8.30;99.90
1137;DHT22;557;48.466;7.950;2023-04-12T02:35:02;8.30;99.90
1137;DHT22;557;48.466;7.950;2023-04-12T02:37:49;8.30;99.90
1137;DHT22;557;48.466;7.950;2023-04-12T02:40:38;8.20;99.90
1137;DHT22;557;48.466;7.950;2023-04-12T02:43:25;8.20;99.90
1137;DHT22;557;48.466;7.950;2023-04-12T02:46:15;8.20;99.90
1137;DHT22;557;48.466;7.950;2023-04-12T02:49:04;8.20;99.90
1137;DHT22;557;48.466;7.950;2023-04-12T02:51:53;8.10;99.90
1137;DHT22;557;48.466;7.950;2023-04-12T02:54:40;8.10;99.90
1137;DHT22;557;48.466;7.950;2023-04-12T02:57:27;8.10;99.90
1137;DHT22;557;48.466;7.950;2023-04-12T03:00:15;8.10;99.90
1137;DHT22;557;48.466;7.950;2023-04-12T03:03:03;8.10;99.90
1137;DHT22;557;48.466;7.950;2023-04-12T03:05:51;8.10;99.90
1137;DHT22;557;48.466;7.950;2023-04-12T03:08:39;8.10;99.90
1137;DHT22;557;48.466;7.950;2023-04-12T03:11:33;8.10;99.90
1137;DHT22;557;48.466;7.950;2023-04-12T03:14:20;8.00;99.90
1137;DHT22;557;48.466;7.950;2023-04-12T03:17:08;8.10;99.90
1137;DHT22;557;48.466;7.950;2023-04-12T03:19:55;8.10;99.90
1137;DHT22;557;48.466;7.950;2023-04-12T03:22:43;8.10;99.90
1137;DHT22;557;48.466;7.950;2023-04-12T03:25:31;8.10;99.90
1137;DHT22;557;48.466;7.950;2023-04-12T03:28:19;8.00;99.90
1137;DHT22;557;48.466;7.950;2023-04-12T03:31:06;8.00;99.90
1137;DHT22;557;48.466;7.950;2023-04-12T03:33:54;8.00;99.90
1137;DHT22;557;48.466;7.950;2023-04-12T03:36:41;8.00;99.90
1137;DHT22;557;48.466;7.950;2023-04-12T03:39:28;8.00;99.90
1137;DHT22;557;48.466;7.950;2023-04-12T03:42:17;8.00;99.90
1137;DHT22;557;48.466;7.950;2023-04-12T03:45:05;8.00;99.90
1137;DHT22;557;48.466;7.950;2023-04-12T03:47:53;8.00;99.90
1137;DHT22;557;48.466;7.950;2023-04-12T03:50:40;8.00;99.90
1137;DHT22;557;48.466;7.950;2023-04-12T03:53:30;8.00;99.90
1137;DHT22;557;48.466;7.950;2023-04-12T03:56:17;8.00;99.90
1137;DHT22;557;48.466;7.950;2023-04-12T03:59:06;8.00;99.90
1137;DHT22;557;48.466;7.950;2023-04-12T04:01:53;8.10;99.90
1137;DHT22;557;48.466;7.950;2023-04-12T04:04:41;8.10;99.90
1137;DHT22;557;48.466;7.950;2023-04-12T04:07:28;8.10;99.90
1137;DHT22;557;48.466;7.950;2023-04-12T04:10:16;8.10;99.90
1137;DHT22;557;48.466;7.950;2023-04-12T04:13:03;8.10;99.90
1137;DHT22;557;48.466;7.950;2023-04-12T04:15:57;8.10;99.90
1137;DHT22;557;48.466;7.950;2023-04-12T04:18:45;8.20;99.90
1137;DHT22;557;48.466;7.950;2023-04-12T04:21:32;8.20;99.90
1137;DHT22;557;48.466;7.950;2023-04-12T04:24:20;8.30;99.90
1137;DHT22;557;48.466;7.950;2023-04-12T04:27:09;8.40;99.90
1137;DHT22;557;48.466;7.950;2023-04-12T04:30:00;8.30;99.90
1137;DHT22;557;48.466;7.950;2023-04-12T04:32:49;8.50;99.90
1137;DHT22;557;48.466;7.950;2023-04-12T04:35:38;8.60;99.90
1137;DHT22;557;48.466;7.950;2023-04-12T04:38:25;8.60;99.90
1137;DHT22;557;48.466;7.950;2023-04-12T04:41:13;8.70;99.90
1137;DHT22;557;48.466;7.950;2023-04-12T04:44:02;8.70;99.90
1137;DHT22;557;48.466;7.950;2023-04-12T04:46:54;8.70;99.90
1137;DHT22;557;48.466;7.950;2023-04-12T04:49:45;8.70;99.90
1137;DHT22;557;48.466;7.950;2023-04-12T04:52:33;8.70;99.90
1137;DHT22;557;48.466;7.950;2023-04-12T04:55:22;8.80;99.90
1137;DHT22;557;48.466;7.950;2023-04-12T04:58:11;8.80;99.90
1137;DHT22;557;48.466;7.950;2023-04-12T05:00:58;8.90;99.90
1137;DHT22;557;48.466;7.950;2023-04-12T05:03:45;9.10;99.90
1137;DHT22;557;48.466;7.950;2023-04-12T05:06:36;9.10;99.90
1137;DHT22;557;48.466;7.950;2023-04-12T05:09:23;9.20;99.90
1137;DHT22;557;48.466;7.950;2023-04-12T05:12:10;9.20;99.90
1137;DHT22;557;48.466;7.950;2023-04-12T05:14:58;9.20;99.90
1137;DHT22;557;48.466;7.950;2023-04-12T05:17:45;9.20;99.90
1137;DHT22;557;48.466;7.950;2023-04-12T05:20:33;9.20;99.90
1137;DHT22;557;48.466;7.950;2023-04-12T05:23:21;9.20;99.90
1137;DHT22;557;48.466;7.950;2023-04-12T05:26:08;9.40;99.90
1137;DHT22;557;48.466;7.950;2023-04-12T05:28:56;9.40;99.90
1137;DHT22;557;48.466;7.950;2023-04-12T05:31:44;9.40;99.90
1137;DHT22;557;48.466;7.950;2023-04-12T05:34:31;9.40;99.90
1137;DHT22;557;48.466;7.950;2023-04-12T05:37:18;9.40;99.90
1137;DHT22;557;48.466;7.950;2023-04-12T05:40:08;9.40;99.90
1137;DHT22;557;48.466;7.950;2023-04-12T05:42:56;9.40;99.90
1137;DHT22;557;48.466;7.950;2023-04-12T05:45:43;9.40;99.90
1137;DHT22;557;48.466;7.950;2023-04-12T05:48:30;9.40;99.90
1137;DHT22;557;48.466;7.950;2023-04-12T05:51:17;9.40;99.90
1137;DHT22;557;48.466;7.950;2023-04-12T05:54:05;9.40;99.90
1137;DHT22;557;48.466;7.950;2023-04-12T05:56:54;9.40;99.90
1137;DHT22;557;48.466;7.950;2023-04-12T05:59:42;9.40;99.90
1137;DHT22;557;48.466;7.950;2023-04-12T06:02:29;9.30;99.90
1137;DHT22;557;48.466;7.950;2023-04-12T06:05:17;9.20;99.90
1137;DHT22;557;48.466;7.950;2023-04-12T06:08:04;9.20;99.90
1137;DHT22;557;48.466;7.950;2023-04-12T06:10:52;9.30;99.90
1137;DHT22;557;48.466;7.950;2023-04-12T06:13:40;9.30;99.90
1137;DHT22;557;48.466;7.950;2023-04-12T06:16:28;9.30;99.90
1137;DHT22;557;48.466;7.950;2023-04-12T06:19:15;9.20;99.90
1137;DHT22;557;48.466;7.950;2023-04-12T06:22:03;9.30;99.90
1137;DHT22;557;48.466;7.950;2023-04-12T06:24:50;9.40;99.90
1137;DHT22;557;48.466;7.950;2023-04-12T06:27:43;9.40;99.90
1137;DHT22;557;48.466;7.950;2023-04-12T06:30:39;9.30;99.90
1137;DHT22;557;48.466;7.950;2023-04-12T06:33:26;9.20;99.90
1137;DHT22;557;48.466;7.950;2023-04-12T06:36:13;9.20;99.90
1137;DHT22;557;48.466;7.950;2023-04-12T06:39:01;9.10;99.90
1137;DHT22;557;48.466;7.950;2023-04-12T06:41:49;9.20;99.90
1137;DHT22;557;48.466;7.950;2023-04-12T06:44:36;9.20;99.90
1137;DHT22;557;48.466;7.950;2023-04-12T06:47:25;9.20;99.90
1137;DHT22;557;48.466;7.950;2023-04-12T06:50:12;9.20;99.90
1137;DHT22;557;48.466;7.950;2023-04-12T06:52:59;9.10;99.90
1137;DHT22;557;48.466;7.950;2023-04-12T06:55:52;9.30;99.90
1137;DHT22;557;48.466;7.950;2023-04-12T06:58:39;9.20;99.90
1137;DHT22;557;48.466;7.950;2023-04-12T07:01:26;9.30;99.90
1137;DHT22;557;48.466;7.950;2023-04-12T07:04:17;9.30;99.90
1137;DHT22;557;48.466;7.950;2023-04-12T07:07:05;9.30;99.90
1137;DHT22;557;48.466;7.950;2023-04-12T07:09:59;9.30;99.90
1137;DHT22;557;48.466;7.950;2023-04-12T07:12:48;9.30;99.90
1137;DHT22;557;48.466;7.950;2023-04-12T07:15:36;9.30;99.90
1137;DHT22;557;48.466;7.950;2023-04-12T07:18:24;9.40;99.90
1137;DHT22;557;48.466;7.950;2023-04-12T07:21:13;9.40;99.90
1137;DHT22;557;48.466;7.950;2023-04-12T07:24:02;9.50;99.90
1137;DHT22;557;48.466;7.950;2023-04-12T07:26:52;9.60;99.90
1137;DHT22;557;48.466;7.950;2023-04-12T07:29:39;9.70;99.90
1137;DHT22;557;48.466;7.950;2023-04-12T07:32:27;9.70;99.90
1137;DHT22;557;48.466;7.950;2023-04-12T07:35:14;9.80;99.90
1137;DHT22;557;48.466;7.950;2023-04-12T07:38:03;9.80;99.90
1137;DHT22;557;48.466;7.950;2023-04-12T07:40:52;9.90;99.90
1137;DHT22;557;48.466;7.950;2023-04-12T07:43:42;9.90;99.90
1137;DHT22;557;48.466;7.950;2023-04-12T07:46:29;10.00;99.90
1137;DHT22;557;48.466;7.950;2023-04-12T07:49:18;10.00;99.90
1137;DHT22;557;48.466;7.950;2023-04-12T07:52:05;10.10;99.90
1137;DHT22;557;48.466;7.950;2023-04-12T07:54:54;10.20;90.50
1137;DHT22;557;48.466;7.950;2023-04-12T07:57:44;10.40;42.70
1137;DHT22;557;48.466;7.950;2023-04-12T08:00:33;10.50;17.90
1137;DHT22;557;48.466;7.950;2023-04-12T08:03:28;10.60;10.10
1137;DHT22;557;48.466;7.950;2023-04-12T08:06:15;10.70;11.60
1137;DHT22;557;48.466;7.950;2023-04-12T08:09:04;10.80;1.00
1137;DHT22;557;48.466;7.950;2023-04-12T08:11:53;10.90;1.00
1137;DHT22;557;48.466;7.950;2023-04-12T08:14:40;11.00;1.00
1137;DHT22;557;48.466;7.950;2023-04-12T08:17:29;11.10;1.00
1137;DHT22;557;48.466;7.950;2023-04-12T08:20:16;11.10;1.00
1137;DHT22;557;48.466;7.950;2023-04-12T08:23:05;11.20;1.00
1137;DHT22;557;48.466;7.950;2023-04-12T08:25:52;11.20;1.00
1137;DHT22;557;48.466;7.950;2023-04-12T08:28:49;11.20;1.00
1137;DHT22;557;48.466;7.950;2023-04-12T08:31:38;11.20;1.00
1137;DHT22;557;48.466;7.950;2023-04-12T08:34:26;11.20;1.00
1137;DHT22;557;48.466;7.950;2023-04-12T08:37:13;11.10;1.00
1137;DHT22;557;48.466;7.950;2023-04-12T08:40:03;11.10;1.00
1137;DHT22;557;48.466;7.950;2023-04-12T08:42:52;11.10;1.00
1137;DHT22;557;48.466;7.950;2023-04-12T08:45:41;11.10;1.00
1137;DHT22;557;48.466;7.950;2023-04-12T08:48:28;11.10;20.80
1137;DHT22;557;48.466;7.950;2023-04-12T08:51:17;11.10;32.80
1137;DHT22;557;48.466;7.950;2023-04-12T08:54:05;11.10;3.60
1137;DHT22;557;48.466;7.950;2023-04-12T08:56:53;11.20;1.00
1137;DHT22;557;48.466;7.950;2023-04-12T08:59:42;11.30;8.40
1137;DHT22;557;48.466;7.950;2023-04-12T09:02:34;11.40;1.00
1137;DHT22;557;48.466;7.950;2023-04-12T09:05:27;11.50;1.00
1137;DHT22;557;48.466;7.950;2023-04-12T09:08:14;11.70;1.00
1137;DHT22;557;48.466;7.950;2023-04-12T09:11:20;11.70;1.00
1137;DHT22;557;48.466;7.950;2023-04-12T09:14:20;11.70;1.00
1137;DHT22;557;48.466;7.950;2023-04-12T09:17:20;11.80;1.00
1137;DHT22;557;48.466;7.950;2023-04-12T09:20:33;12.00;1.00
1137;DHT22;557;48.466;7.950;2023-04-12T09:23:22;12.10;1.00
1137;DHT22;557;48.466;7.950;2023-04-12T09:26:26;12.10;1.00
1137;DHT22;557;48.466;7.950;2023-04-12T09:29:22;12.10;99.90
1137;DHT22;557;48.466;7.950;2023-04-12T09:32:10;12.10;1.00
1137;DHT22;557;48.466;7.950;2023-04-12T09:34:58;12.20;99.90
1137;DHT22;557;48.466;7.950;2023-04-12T09:37:56;12.20;99.90
1137;DHT22;557;48.466;7.950;2023-04-12T09:40:44;12.20;99.90
1137;DHT22;557;48.466;7.950;2023-04-12T09:43:38;12.20;99.90
1137;DHT22;557;48.466;7.950;2023-04-12T09:46:25;12.20;99.90
1137;DHT22;557;48.466;7.950;2023-04-12T09:49:13;12.20;99.90
1137;DHT22;557;48.466;7.950;2023-04-12T09:52:01;12.30;99.90
1137;DHT22;557;48.466;7.950;2023-04-12T09:54:50;12.30;99.90
1137;DHT22;557;48.466;7.950;2023-04-12T09:57:40;12.40;93.80
1137;DHT22;557;48.466;7.950;2023-04-12T10:00:29;12.50;93.80
1137;DHT22;557;48.466;7.950;2023-04-12T10:03:19;12.50;99.90
1137;DHT22;557;48.466;7.950;2023-04-12T10:06:07;12.60;99.90
1137;DHT22;557;48.466;7.950;2023-04-12T10:08:55;12.70;1.00
1137;DHT22;557;48.466;7.950;2023-04-12T10:11:44;12.90;1.00
1137;DHT22;557;48.466;7.950;2023-04-12T10:14:33;13.00;99.90
1137;DHT22;557;48.466;7.950;2023-04-12T10:17:21;12.90;99.90
1137;DHT22;557;48.466;7.950;2023-04-12T10:20:10;13.00;1.00
1137;DHT22;557;48.466;7.950;2023-04-12T10:22:57;12.90;99.90
1137;DHT22;557;48.466;7.950;2023-04-12T10:25:46;12.90;1.00
1137;DHT22;557;48.466;7.950;2023-04-12T10:28:35;12.90;1.00
1137;DHT22;557;48.466;7.950;2023-04-12T10:31:27;12.90;1.00
1137;DHT22;557;48.466;7.950;2023-04-12T10:34:15;12.80;1.00
1137;DHT22;557;48.466;7.950;2023-04-12T10:37:02;12.80;1.00
1137;DHT22;557;48.466;7.950;2023-04-12T10:39:53;12.80;9.90
1137;DHT22;557;48.466;7.950;2023-04-12T10:42:41;12.80;99.90
1137;DHT22;557;48.466;7.950;2023-04-12T10:45:36;12.80;99.90
1137;DHT22;557;48.466;7.950;2023-04-12T10:48:34;12.90;1.00
1137;DHT22;557;48.466;7.950;2023-04-12T10:51:23;12.90;29.00
1137;DHT22;557;48.466;7.950;2023-04-12T10:54:31;13.00;99.90
1137;DHT22;557;48.466;7.950;2023-04-12T10:57:39;13.10;99.90
1137;DHT22;557;48.466;7.950;2023-04-12T11:01:10;13.10;1.00
1137;DHT22;557;48.466;7.950;2023-04-12T11:04:12;13.10;1.00
1137;DHT22;557;48.466;7.950;2023-04-12T11:07:00;13.20;66.60
1137;DHT22;557;48.466;7.950;2023-04-12T11:09:49;13.20;1.00
1137;DHT22;557;48.466;7.950;2023-04-12T11:12:37;13.30;99.90
1137;DHT22;557;48.466;7.950;2023-04-12T11:15:25;13.30;1.00
1137;DHT22;557;48.466;7.950;2023-04-12T11:18:15;13.60;99.90
1137;DHT22;557;48.466;7.950;2023-04-12T11:21:02;13.50;99.90
1137;DHT22;557;48.466;7.950;2023-04-12T11:23:51;13.40;99.90
1137;DHT22;557;48.466;7.950;2023-04-12T11:26:39;13.50;1.00
1137;DHT22;557;48.466;7.950;2023-04-12T11:29:27;13.50;99.90
1137;DHT22;557;48.466;7.950;2023-04-12T11:32:14;13.60;99.90
1137;DHT22;557;48.466;7.950;2023-04-12T11:35:03;13.70;99.90
1137;DHT22;557;48.466;7.950;2023-04-12T11:37:51;13.80;1.00
1137;DHT22;557;48.466;7.950;2023-04-12T11:40:38;13.90;1.00
1137;DHT22;557;48.466;7.950;2023-04-12T11:43:28;14.10;99.90
1137;DHT22;557;48.466;7.950;2023-04-12T11:46:15;14.10;99.90
1137;DHT22;557;48.466;7.950;2023-04-12T11:49:03;14.10;99.90
1137;DHT22;557;48.466;7.950;2023-04-12T11:52:00;14.00;1.00
1137;DHT22;557;48.466;7.950;2023-04-12T11:54:49;14.10;99.90
1137;DHT22;557;48.466;7.950;2023-04-12T11:57:41;14.20;35.90
1137;DHT22;557;48.466;7.950;2023-04-12T12:00:28;14.30;99.90
1137;DHT22;557;48.466;7.950;2023-04-12T12:03:16;14.30;1.00
1137;DHT22;557;48.466;7.950;2023-04-12T12:06:06;14.40;99.90
1137;DHT22;557;48.466;7.950;2023-04-12T12:08:55;14.30;1.00
1137;DHT22;557;48.466;7.950;2023-04-12T12:11:43;14.20;99.90
1137;DHT22;557;48.466;7.950;2023-04-12T12:14:33;14.10;99.90
1137;DHT22;557;48.466;7.950;2023-04-12T12:17:21;14.20;99.90
1137;DHT22;557;48.466;7.950;2023-04-12T12:20:18;14.30;99.90
1137;DHT22;557;48.466;7.950;2023-04-12T12:23:06;14.20;61.70
1137;DHT22;557;48.466;7.950;2023-04-12T12:25:57;14.20;99.90
1137;DHT22;557;48.466;7.950;2023-04-12T12:28:49;14.10;1.00
1137;DHT22;557;48.466;7.950;2023-04-12T12:31:37;14.10;15.50
1137;DHT22;557;48.466;7.950;2023-04-12T12:34:32;14.00;1.00
1137;DHT22;557;48.466;7.950;2023-04-12T12:37:22;14.10;99.90
1137;DHT22;557;48.466;7.950;2023-04-12T12:40:11;14.40;99.90
1137;DHT22;557;48.466;7.950;2023-04-12T12:43:00;14.60;1.00
1137;DHT22;557;48.466;7.950;2023-04-12T12:45:48;14.50;99.90
1137;DHT22;557;48.466;7.950;2023-04-12T12:48:38;14.40;99.90
1137;DHT22;557;48.466;7.950;2023-04-12T12:51:26;14.30;99.90
1137;DHT22;557;48.466;7.950;2023-04-12T12:54:15;14.30;1.00
1137;DHT22;557;48.466;7.950;2023-04-12T12:57:02;14.30;1.00
1137;DHT22;557;48.466;7.950;2023-04-12T12:59:51;13.90;1.00
1137;DHT22;557;48.466;7.950;2023-04-12T13:02:38;13.50;1.00
1137;DHT22;557;48.466;7.950;2023-04-12T13:05:25;13.40;1.00
1137;DHT22;557;48.466;7.950;2023-04-12T13:08:13;13.40;1.00
1137;DHT22;557;48.466;7.950;2023-04-12T13:11:00;13.50;99.90
1137;DHT22;557;48.466;7.950;2023-04-12T13:13:48;13.50;99.90
1137;DHT22;557;48.466;7.950;2023-04-12T13:16:36;13.60;99.90
1137;DHT22;557;48.466;7.950;2023-04-12T13:19:24;13.60;99.90
1137;DHT22;557;48.466;7.950;2023-04-12T13:22:11;13.70;1.00
1137;DHT22;557;48.466;7.950;2023-04-12T13:24:59;13.80;1.00
1137;DHT22;557;48.466;7.950;2023-04-12T13:27:47;14.30;99.90
1137;DHT22;557;48.466;7.950;2023-04-12T13:30:34;14.60;99.90
1137;DHT22;557;48.466;7.950;2023-04-12T13:33:23;15.00;99.90
1137;DHT22;557;48.466;7.950;2023-04-12T13:36:11;15.10;99.90
1137;DHT22;557;48.466;7.950;2023-04-12T13:38:58;15.10;99.90
1137;DHT22;557;48.466;7.950;2023-04-12T13:41:46;15.10;1.00
1137;DHT22;557;48.466;7.950;2023-04-12T13:44:33;15.00;1.00
1137;DHT22;557;48.466;7.950;2023-04-12T13:47:21;15.00;95.30
1137;DHT22;557;48.466;7.950;2023-04-12T13:50:10;15.00;1.00
1137;DHT22;557;48.466;7.950;2023-04-12T13:52:57;15.00;1.00
1137;DHT22;557;48.466;7.950;2023-04-12T13:55:45;15.10;99.90
1137;DHT22;557;48.466;7.950;2023-04-12T13:58:34;15.10;99.90
1137;DHT22;557;48.466;7.950;2023-04-12T14:01:24;15.00;99.90
1137;DHT22;557;48.466;7.950;2023-04-12T14:04:12;14.90;99.90
1137;DHT22;557;48.466;7.950;2023-04-12T14:07:00;14.80;99.90
1137;DHT22;557;48.466;7.950;2023-04-12T14:09:47;14.60;99.90
1137;DHT22;557;48.466;7.950;2023-04-12T14:12:35;12.50;1.00
1137;DHT22;557;48.466;7.950;2023-04-12T14:15:22;10.60;99.90
1137;DHT22;557;48.466;7.950;2023-04-12T14:18:09;10.00;99.90
1137;DHT22;557;48.466;7.950;2023-04-12T14:20:57;9.90;99.90
1137;DHT22;557;48.466;7.950;2023-04-12T14:23:46;9.90;99.90
1137;DHT22;557;48.466;7.950;2023-04-12T14:26:33;9.90;99.90
1137;DHT22;557;48.466;7.950;2023-04-12T14:29:21;9.80;99.90
1137;DHT22;557;48.466;7.950;2023-04-12T14:32:08;9.70;99.90
1137;DHT22;557;48.466;7.950;2023-04-12T14:34:56;9.80;99.90
1137;DHT22;557;48.466;7.950;2023-04-12T14:37:43;9.80;99.90
1137;DHT22;557;48.466;7.950;2023-04-12T14:40:32;9.90;99.90
1137;DHT22;557;48.466;7.950;2023-04-12T14:43:19;10.00;99.90
1137;DHT22;557;48.466;7.950;2023-04-12T14:46:06;10.10;99.90
1137;DHT22;557;48.466;7.950;2023-04-12T14:48:54;10.10;99.90
1137;DHT22;557;48.466;7.950;2023-04-12T14:51:41;10.10;99.90
1137;DHT22;557;48.466;7.950;2023-04-12T14:54:29;10.10;99.90
1137;DHT22;557;48.466;7.950;2023-04-12T14:57:17;10.10;99.90
1137;DHT22;557;48.466;7.950;2023-04-12T15:00:06;10.10;99.90
1137;DHT22;557;48.466;7.950;2023-04-12T15:02:58;10.20;99.90
1137;DHT22;557;48.466;7.950;2023-04-12T15:05:46;10.20;99.90
1137;DHT22;557;48.466;7.950;2023-04-12T15:08:33;10.20;99.90
1137;DHT22;557;48.466;7.950;2023-04-12T15:11:26;10.30;99.90
1137;DHT22;557;48.466;7.950;2023-04-12T15:14:14;10.30;99.90
1137;DHT22;557;48.466;7.950;2023-04-12T15:17:04;10.30;99.90
1137;DHT22;557;48.466;7.950;2023-04-12T15:19:52;10.30;99.90
1137;DHT22;557;48.466;7.950;2023-04-12T15:22:39;10.30;99.90
1137;DHT22;557;48.466;7.950;2023-04-12T15:25:26;10.30;99.90
1137;DHT22;557;48.466;7.950;2023-04-12T15:28:15;10.20;99.90
1137;DHT22;557;48.466;7.950;2023-04-12T15:31:05;10.20;99.90
1137;DHT22;557;48.466;7.950;2023-04-12T15:33:52;10.10;99.90
1137;DHT22;557;48.466;7.950;2023-04-12T15:36:41;10.10;99.90
1137;DHT22;557;48.466;7.950;2023-04-12T15:39:29;10.10;99.90
1137;DHT22;557;48.466;7.950;2023-04-12T15:42:16;10.10;99.90
1137;DHT22;557;48.466;7.950;2023-04-12T15:45:04;10.10;99.90
1137;DHT22;557;48.466;7.950;2023-04-12T15:47:53;10.10;99.90
1137;DHT22;557;48.466;7.950;2023-04-12T15:50:41;10.10;99.90
1137;DHT22;557;48.466;7.950;2023-04-12T15:53:29;10.10;99.90
1137;DHT22;557;48.466;7.950;2023-04-12T15:56:16;10.10;99.90
1137;DHT22;557;48.466;7.950;2023-04-12T15:59:08;10.00;99.90
1137;DHT22;557;48.466;7.950;2023-04-12T16:01:56;10.00;99.90
1137;DHT22;557;48.466;7.950;2023-04-12T16:04:44;10.00;99.90
1137;DHT22;557;48.466;7.950;2023-04-12T16:07:32;10.00;99.90
1137;DHT22;557;48.466;7.950;2023-04-12T16:10:20;10.00;99.90
1137;DHT22;557;48.466;7.950;2023-04-12T16:13:07;10.00;99.90
1137;DHT22;557;48.466;7.950;2023-04-12T16:15:55;10.00;99.90
1137;DHT22;557;48.466;7.950;2023-04-12T16:18:43;10.00;99.90
1137;DHT22;557;48.466;7.950;2023-04-12T16:21:32;10.00;99.90
1137;DHT22;557;48.466;7.950;2023-04-12T16:24:19;10.00;99.90
1137;DHT22;557;48.466;7.950;2023-04-12T16:27:08;10.10;99.90
1137;DHT22;557;48.466;7.950;2023-04-12T16:29:57;10.10;99.90
1137;DHT22;557;48.466;7.950;2023-04-12T16:32:45;10.10;99.90
1137;DHT22;557;48.466;7.950;2023-04-12T16:35:33;10.00;99.90
1137;DHT22;557;48.466;7.950;2023-04-12T16:38:22;10.00;99.90
1137;DHT22;557;48.466;7.950;2023-04-12T16:41:09;9.90;99.90
1137;DHT22;557;48.466;7.950;2023-04-12T16:43:58;9.90;99.90
1137;DHT22;557;48.466;7.950;2023-04-12T16:46:48;9.90;99.90
1137;DHT22;557;48.466;7.950;2023-04-12T16:49:35;9.90;99.90
1137;DHT22;557;48.466;7.950;2023-04-12T16:52:23;9.80;99.90
1137;DHT22;557;48.466;7.950;2023-04-12T16:55:12;9.80;99.90
1137;DHT22;557;48.466;7.950;2023-04-12T16:57:59;9.70;99.90
1137;DHT22;557;48.466;7.950;2023-04-12T17:00:46;9.70;99.90
1137;DHT22;557;48.466;7.950;2023-04-12T17:03:34;9.70;99.90
1137;DHT22;557;48.466;7.950;2023-04-12T17:06:21;9.70;99.90
1137;DHT22;557;48.466;7.950;2023-04-12T17:09:08;9.80;99.90
1137;DHT22;557;48.466;7.950;2023-04-12T17:11:57;9.80;99.90
1137;DHT22;557;48.466;7.950;2023-04-12T17:14:46;9.80;99.90
1137;DHT22;557;48.466;7.950;2023-04-12T17:17:36;9.80;99.90
1137;DHT22;557;48.466;7.950;2023-04-12T17:20:23;9.80;99.90
1137;DHT22;557;48.466;7.950;2023-04-12T17:23:10;9.80;99.90
1137;DHT22;557;48.466;7.950;2023-04-12T17:25:58;9.80;99.90
1137;DHT22;557;48.466;7.950;2023-04-12T17:28:48;9.80;99.90
1137;DHT22;557;48.466;7.950;2023-04-12T17:31:35;9.80;99.90
1137;DHT22;557;48.466;7.950;2023-04-12T17:34:24;9.80;99.90
1137;DHT22;557;48.466;7.950;2023-04-12T17:37:12;9.80;99.90
1137;DHT22;557;48.466;7.950;2023-04-12T17:40:00;9.80;99.90
1137;DHT22;557;48.466;7.950;2023-04-12T17:42:49;9.80;99.90
1137;DHT22;557;48.466;7.950;2023-04-12T17:45:38;9.80;99.90
1137;DHT22;557;48.466;7.950;2023-04-12T17:48:25;9.80;99.90
1137;DHT22;557;48.466;7.950;2023-04-12T17:51:12;9.80;99.90
1137;DHT22;557;48.466;7.950;2023-04-12T17:54:01;9.80;99.90
1137;DHT22;557;48.466;7.950;2023-04-12T17:56:49;9.80;99.90
1137;DHT22;557;48.466;7.950;2023-04-12T17:59:36;9.80;99.90
1137;DHT22;557;48.466;7.950;2023-04-12T18:02:25;9.80;99.90
1137;DHT22;557;48.466;7.950;2023-04-12T18:05:12;9.80;99.90
1137;DHT22;557;48.466;7.950;2023-04-12T18:08:00;9.80;99.90
1137;DHT22;557;48.466;7.950;2023-04-12T18:10:50;9.70;99.90
1137;DHT22;557;48.466;7.950;2023-04-12T18:13:37;9.70;99.90
1137;DHT22;557;48.466;7.950;2023-04-12T18:16:24;9.70;99.90
1137;DHT22;557;48.466;7.950;2023-04-12T18:19:15;9.70;99.90
1137;DHT22;557;48.466;7.950;2023-04-12T18:22:04;9.70;99.90
1137;DHT22;557;48.466;7.950;2023-04-12T18:24:52;9.70;99.90
1137;DHT22;557;48.466;7.950;2023-04-12T18:27:39;9.70;99.90
1137;DHT22;557;48.466;7.950;2023-04-12T18:30:26;9.70;99.90
1137;DHT22;557;48.466;7.950;2023-04-12T18:33:14;9.70;99.90
1137;DHT22;557;48.466;7.950;2023-04-12T18:36:03;9.70;99.90
1137;DHT22;557;48.466;7.950;2023-04-12T18:38:51;9.70;99.90
1137;DHT22;557;48.466;7.950;2023-04-12T18:41:38;9.70;99.90
1137;DHT22;557;48.466;7.950;2023-04-12T18:44:26;9.70;99.90
1137;DHT22;557;48.466;7.950;2023-04-12T18:47:14;9.70;99.90
1137;DHT22;557;48.466;7.950;2023-04-12T18:50:01;9.70;99.90
1137;DHT22;557;48.466;7.950;2023-04-12T18:52:50;9.70;99.90
1137;DHT22;557;48.466;7.950;2023-04-12T18:55:37;9.70;99.90